createdAt,value
2018-09-10T00:00:33.560Z,0
2018-09-10T00:01:43.641Z,0
2018-09-10T00:02:53.970Z,0
2018-09-10T00:04:04.051Z,0
2018-09-10T00:05:14.131Z,0
2018-09-10T00:06:23.941Z,0
2018-09-10T00:07:33.772Z,0
2018-09-10T00:08:43.658Z,0
2018-09-10T00:09:53.731Z,0
2018-09-10T00:11:03.536Z,0
2018-09-10T00:12:13.621Z,0
2018-09-10T00:13:23.698Z,0
2018-09-10T00:14:33.585Z,0
2018-09-10T00:15:43.143Z,0
2018-09-10T00:16:53.226Z,0
2018-09-10T00:18:03.327Z,0
2018-09-10T00:19:13.444Z,0
2018-09-10T00:20:23.538Z,0
2018-09-10T00:21:33.614Z,0
2018-09-10T00:22:43.699Z,0
2018-09-10T00:23:53.769Z,0
2018-09-10T00:25:03.848Z,0
2018-09-10T00:26:13.907Z,0
2018-09-10T00:27:23.978Z,0
2018-09-10T00:28:34.060Z,0
2018-09-10T00:29:44.141Z,0
2018-09-10T00:30:54.194Z,0
2018-09-10T00:32:04.286Z,0
2018-09-10T00:33:14.595Z,0
2018-09-10T00:34:24.674Z,0
2018-09-10T00:35:34.480Z,0
2018-09-10T00:36:44.287Z,0
2018-09-10T00:37:54.113Z,0
2018-09-10T00:39:04.193Z,0
2018-09-10T00:40:14.244Z,0
2018-09-10T00:41:24.330Z,0
2018-09-10T00:42:34.418Z,0
2018-09-10T00:43:44.540Z,0
2018-09-10T00:44:54.372Z,0
2018-09-10T00:46:04.486Z,0
2018-09-10T00:47:14.623Z,0
2018-09-10T00:48:24.682Z,0
2018-09-10T00:49:34.942Z,0
2018-09-10T00:50:45.016Z,0
2018-09-10T00:51:55.084Z,0
2018-09-10T00:53:05.617Z,0
2018-09-10T00:54:15.438Z,0
2018-09-10T00:55:25.555Z,0
2018-09-10T00:56:35.646Z,0
2018-09-10T00:57:45.719Z,0
2018-09-10T00:58:55.023Z,0
2018-09-10T01:00:04.865Z,0
2018-09-10T01:01:14.955Z,0
2018-09-10T01:02:24.800Z,0
2018-09-10T01:03:34.886Z,0
2018-09-10T01:04:44.973Z,0
2018-09-10T01:05:55.041Z,0
2018-09-10T01:07:05.226Z,0
2018-09-10T01:08:15.070Z,0
2018-09-10T01:09:25.151Z,0
2018-09-10T01:10:34.957Z,0
2018-09-10T01:11:45.028Z,0
2018-09-10T01:12:54.857Z,0
2018-09-10T01:14:05.185Z,0
2018-09-10T01:15:15.267Z,0
2018-09-10T01:16:25.332Z,0
2018-09-10T01:17:35.397Z,0
2018-09-10T01:18:45.459Z,0
2018-09-10T01:19:55.546Z,0
2018-09-10T01:21:05.633Z,0
2018-09-10T01:22:15.710Z,0
2018-09-10T01:23:25.626Z,0
2018-09-10T01:24:35.760Z,0
2018-09-10T01:25:45.821Z,0
2018-09-10T01:26:55.909Z,0
2018-09-10T01:28:05.983Z,0
2018-09-10T01:29:16.090Z,0
2018-09-10T01:30:26.197Z,0
2018-09-10T01:31:36.269Z,0
2018-09-10T01:32:46.076Z,0
2018-09-10T01:33:56.143Z,0
2018-09-10T01:35:06.206Z,0
2018-09-10T01:36:16.286Z,0
2018-09-10T01:37:26.383Z,0
2018-09-10T01:38:36.441Z,0
2018-09-10T01:39:46.259Z,0
2018-09-10T01:40:56.343Z,0
2018-09-10T01:42:06.509Z,0
2018-09-10T01:43:16.599Z,0
2018-09-10T01:44:26.668Z,0
2018-09-10T01:45:36.492Z,0
2018-09-10T01:46:46.550Z,0
2018-09-10T01:47:56.694Z,0
2018-09-10T01:49:06.517Z,0
2018-09-10T01:50:16.589Z,0
2018-09-10T01:51:26.655Z,0
2018-09-10T01:52:36.459Z,0
2018-09-10T01:53:46.537Z,0
2018-09-10T01:54:56.613Z,0
2018-09-10T01:56:06.681Z,0
2018-09-10T01:57:16.519Z,0
2018-09-10T01:58:26.602Z,0
2018-09-10T01:59:36.444Z,0
2018-09-10T02:00:46.516Z,0
2018-09-10T02:01:56.319Z,0
2018-09-10T02:03:06.390Z,0
2018-09-10T02:04:16.222Z,0
2018-09-10T02:05:26.047Z,0
2018-09-10T02:06:35.855Z,0
2018-09-10T02:07:45.947Z,0
2018-09-10T02:08:56.014Z,0
2018-09-10T02:10:05.575Z,0
2018-09-10T02:11:15.788Z,0
2018-09-10T02:12:25.086Z,0
2018-09-10T02:13:35.153Z,0
2018-09-10T02:14:45.217Z,0
2018-09-10T02:15:55.031Z,0
2018-09-10T02:17:05.097Z,0
2018-09-10T02:18:14.909Z,0
2018-09-10T02:19:24.978Z,0
2018-09-10T02:20:35.257Z,0
2018-09-10T02:21:45.079Z,0
2018-09-10T02:22:54.631Z,0
2018-09-10T02:24:04.702Z,0
2018-09-10T02:25:14.787Z,0
2018-09-10T02:26:24.851Z,0
2018-09-10T02:27:35.537Z,0
2018-09-10T02:28:45.671Z,0
2018-09-10T02:29:55.744Z,0
2018-09-10T02:31:05.872Z,0
2018-09-10T02:32:15.933Z,0
2018-09-10T02:33:25.762Z,0
2018-09-10T02:34:35.829Z,0
2018-09-10T02:35:45.919Z,0
2018-09-10T02:36:56.005Z,0
2018-09-10T02:38:06.112Z,0
2018-09-10T02:39:16.167Z,0
2018-09-10T02:40:25.976Z,0
2018-09-10T02:41:36.073Z,0
2018-09-10T02:42:45.899Z,0
2018-09-10T02:43:56.008Z,0
2018-09-10T02:45:05.844Z,0
2018-09-10T02:46:15.695Z,0
2018-09-10T02:47:25.777Z,0
2018-09-10T02:48:35.855Z,0
2018-09-10T02:49:45.953Z,0
2018-09-10T02:50:55.761Z,0
2018-09-10T02:52:05.864Z,0
2018-09-10T02:53:16.191Z,0
2018-09-10T02:54:26.283Z,0
2018-09-10T02:55:36.370Z,0
2018-09-10T02:56:46.445Z,0
2018-09-10T02:57:56.357Z,0
2018-09-10T02:59:06.425Z,0
2018-09-10T03:00:16.499Z,0
2018-09-10T03:01:26.584Z,0
2018-09-10T03:02:36.657Z,0
2018-09-10T03:34:50.353Z,0
2018-09-10T03:36:00.432Z,0
2018-09-10T03:37:10.497Z,0
2018-09-10T03:38:20.309Z,0
2018-09-10T03:39:30.378Z,0
2018-09-10T03:40:40.246Z,0
2018-09-10T03:41:50.071Z,0
2018-09-10T03:43:00.134Z,0
2018-09-10T03:44:09.935Z,0
2018-09-10T03:45:19.999Z,0
2018-09-10T03:46:30.060Z,0
2018-09-10T03:47:40.239Z,0
2018-09-10T03:48:50.064Z,0
2018-09-10T03:50:00.357Z,0
2018-09-10T03:51:10.177Z,0
2018-09-10T03:52:19.995Z,0
2018-09-10T03:53:30.089Z,0
2018-09-10T03:54:40.174Z,0
2018-09-10T03:55:50.265Z,0
2018-09-10T03:57:00.350Z,0
2018-09-10T03:58:10.469Z,0
2018-09-10T03:59:20.542Z,0
2018-09-10T04:00:30.360Z,0
2018-09-10T04:01:40.446Z,0
2018-09-10T04:02:50.508Z,0
2018-09-10T04:04:00.762Z,0
2018-09-10T04:05:10.822Z,0
2018-09-10T04:06:20.918Z,0
2018-09-10T04:07:30.751Z,0
2018-09-10T04:08:40.827Z,0
2018-09-10T04:09:50.903Z,0
2018-09-10T04:11:00.975Z,0
2018-09-10T04:12:11.079Z,0
2018-09-10T04:13:21.160Z,0
2018-09-10T04:14:31.244Z,0
2018-09-10T04:15:41.313Z,0
2018-09-10T04:16:51.374Z,0
2018-09-10T04:18:01.468Z,0
2018-09-10T04:19:11.560Z,0
2018-09-10T04:20:21.360Z,0
2018-09-10T04:21:31.418Z,0
2018-09-10T04:22:41.486Z,5
2018-09-10T04:23:51.801Z,5
2018-09-10T04:25:01.883Z,5
2018-09-10T04:26:12.557Z,5
2018-09-10T04:27:22.680Z,5
2018-09-10T04:28:32.987Z,5
2018-09-10T04:29:42.788Z,10
2018-09-10T04:30:52.854Z,10
2018-09-10T04:32:03.030Z,10
2018-09-10T04:33:13.161Z,10
2018-09-10T04:34:22.985Z,10
2018-09-10T04:35:32.811Z,15
2018-09-10T04:36:42.904Z,15
2018-09-10T04:37:52.719Z,15
2018-09-10T04:39:02.852Z,25
2018-09-10T04:40:12.944Z,25
2018-09-10T04:41:23.173Z,25
2018-09-10T04:42:33.516Z,40
2018-09-10T04:43:43.599Z,40
2018-09-10T04:44:53.416Z,45
2018-09-10T04:46:03.495Z,55
2018-09-10T04:47:13.593Z,60
2018-09-10T04:48:23.662Z,60
2018-09-10T04:49:33.762Z,50
2018-09-10T04:50:43.579Z,40
2018-09-10T04:51:53.656Z,35
2018-09-10T04:53:03.482Z,40
2018-09-10T04:54:13.316Z,45
2018-09-10T04:55:23.400Z,50
2018-09-10T04:56:33.480Z,50
2018-09-10T04:57:43.559Z,45
2018-09-10T04:58:53.374Z,40
2018-09-10T05:00:03.207Z,50
2018-09-10T05:01:13.299Z,65
2018-09-10T05:02:23.170Z,60
2018-09-10T05:03:33.250Z,50
2018-09-10T05:04:43.491Z,50
2018-09-10T05:05:53.806Z,50
2018-09-10T05:07:03.883Z,55
2018-09-10T05:08:13.707Z,55
2018-09-10T05:09:23.537Z,55
2018-09-10T05:10:33.093Z,60
2018-09-10T05:11:42.924Z,65
2018-09-10T05:12:52.993Z,60
2018-09-10T05:14:02.876Z,60
2018-09-10T05:15:12.954Z,65
2018-09-10T05:16:23.067Z,65
2018-09-10T05:17:33.154Z,65
2018-09-10T05:18:43.230Z,65
2018-09-10T05:19:53.355Z,70
2018-09-10T05:21:03.443Z,70
2018-09-10T05:22:14.022Z,70
2018-09-10T05:23:24.132Z,70
2018-09-10T05:24:34.211Z,80
2018-09-10T05:25:44.307Z,80
2018-09-10T05:26:54.394Z,85
2018-09-10T05:28:04.650Z,85
2018-09-10T05:29:14.738Z,85
2018-09-10T05:30:24.544Z,75
2018-09-10T05:31:34.386Z,75
2018-09-10T05:32:44.516Z,75
2018-09-10T05:33:54.606Z,80
2018-09-10T05:35:04.684Z,80
2018-09-10T05:36:14.777Z,90
2018-09-10T05:37:24.845Z,95
2018-09-10T05:38:34.933Z,100
2018-09-10T05:39:45.009Z,95
2018-09-10T05:40:55.099Z,85
2018-09-10T05:42:05.631Z,85
2018-09-10T05:43:15.760Z,90
2018-09-10T05:44:25.849Z,100
2018-09-10T05:45:35.926Z,105
2018-09-10T05:46:45.732Z,95
2018-09-10T05:47:55.820Z,90
2018-09-10T05:49:05.970Z,90
2018-09-10T05:50:15.838Z,90
2018-09-10T05:51:25.937Z,105
2018-09-10T05:52:36.016Z,115
2018-09-10T05:53:45.561Z,115
2018-09-10T05:54:55.644Z,110
2018-09-10T05:56:05.728Z,95
2018-09-10T05:57:15.390Z,95
2018-09-10T05:58:25.197Z,95
2018-09-10T05:59:35.276Z,100
2018-09-10T06:00:45.165Z,95
2018-09-10T06:01:55.484Z,95
2018-09-10T06:03:05.662Z,95
2018-09-10T06:04:15.467Z,95
2018-09-10T06:05:25.555Z,95
2018-09-10T06:06:35.676Z,95
2018-09-10T06:07:45.745Z,100
2018-09-10T06:08:55.572Z,95
2018-09-10T06:10:05.646Z,95
2018-09-10T06:11:15.721Z,95
2018-09-10T06:12:25.811Z,100
2018-09-10T06:13:36.132Z,95
2018-09-10T06:14:46.232Z,95
2018-09-10T06:15:56.320Z,95
2018-09-10T06:17:06.379Z,95
2018-09-10T06:18:16.199Z,100
2018-09-10T06:19:25.771Z,100
2018-09-10T06:20:35.843Z,100
2018-09-10T06:21:45.926Z,100
2018-09-10T06:22:55.995Z,100
2018-09-10T06:24:06.084Z,100
2018-09-10T06:25:16.172Z,100
2018-09-10T06:26:26.333Z,100
2018-09-10T06:27:36.436Z,110
2018-09-10T06:28:46.496Z,105
2018-09-10T06:29:56.296Z,105
2018-09-10T06:31:06.383Z,105
2018-09-10T06:32:16.465Z,105
2018-09-10T06:33:26.542Z,105
2018-09-10T06:34:36.609Z,105
2018-09-10T06:35:46.561Z,110
2018-09-10T06:36:56.721Z,110
2018-09-10T06:38:06.817Z,110
2018-09-10T06:39:16.888Z,110
2018-09-10T06:40:26.971Z,110
2018-09-10T06:41:36.784Z,110
2018-09-10T06:42:46.864Z,110
2018-09-10T06:43:56.963Z,110
2018-09-10T06:45:07.049Z,110
2018-09-10T06:46:17.128Z,110
2018-09-10T06:47:26.948Z,110
2018-09-10T06:48:36.239Z,110
2018-09-10T06:49:46.303Z,115
2018-09-10T06:50:56.387Z,115
2018-09-10T06:52:06.461Z,115
2018-09-10T06:53:16.543Z,115
2018-09-10T06:54:26.628Z,115
2018-09-10T06:55:36.784Z,115
2018-09-10T06:56:46.865Z,115
2018-09-10T06:57:56.939Z,115
2018-09-10T06:59:06.764Z,115
2018-09-10T07:00:16.435Z,115
2018-09-10T07:01:26.573Z,115
2018-09-10T07:02:36.651Z,115
2018-09-10T07:03:46.732Z,115
2018-09-10T07:04:56.550Z,115
2018-09-10T07:06:06.634Z,115
2018-09-10T07:07:16.838Z,120
2018-09-10T07:08:26.933Z,120
2018-09-10T07:09:36.735Z,120
2018-09-10T07:10:46.565Z,120
2018-09-10T07:11:56.650Z,120
2018-09-10T07:13:07.039Z,120
2018-09-10T07:14:17.153Z,120
2018-09-10T07:15:26.960Z,120
2018-09-10T07:16:36.776Z,120
2018-09-10T07:17:46.854Z,120
2018-09-10T07:18:57.839Z,120
2018-09-10T07:20:08.042Z,120
2018-09-10T07:21:18.361Z,125
2018-09-10T07:22:28.440Z,125
2018-09-10T07:23:38.556Z,125
2018-09-10T07:24:48.680Z,125
2018-09-10T07:25:58.765Z,125
2018-09-10T07:27:08.837Z,125
2018-09-10T07:28:18.735Z,125
2018-09-10T07:29:28.810Z,125
2018-09-10T07:30:38.692Z,125
2018-09-10T07:31:48.814Z,125
2018-09-10T07:32:58.881Z,130
2018-09-10T07:34:08.949Z,130
2018-09-10T07:35:18.491Z,130
2018-09-10T07:36:28.619Z,130
2018-09-10T07:37:38.721Z,130
2018-09-10T07:38:48.800Z,130
2018-09-10T07:39:58.905Z,130
2018-09-10T07:41:08.987Z,130
2018-09-10T07:42:19.061Z,130
2018-09-10T07:43:29.442Z,130
2018-09-10T07:44:39.580Z,135
2018-09-10T07:45:49.670Z,135
2018-09-10T07:46:59.734Z,135
2018-09-10T07:48:09.337Z,135
2018-09-10T07:49:19.160Z,135
2018-09-10T07:50:29.171Z,135
2018-09-10T07:51:39.013Z,135
2018-09-10T07:52:49.070Z,135
2018-09-10T07:53:59.218Z,135
2018-09-10T07:55:09.311Z,140
2018-09-10T07:56:19.122Z,140
2018-09-10T07:57:28.938Z,140
2018-09-10T07:58:38.748Z,140
2018-09-10T07:59:48.830Z,140
2018-09-10T08:00:58.860Z,140
2018-09-10T08:02:08.943Z,140
2018-09-10T08:03:19.141Z,140
2018-09-10T08:04:28.995Z,145
2018-09-10T08:05:39.134Z,145
2018-09-10T08:06:49.221Z,145
2018-09-10T08:07:59.312Z,145
2018-09-10T08:09:09.412Z,145
2018-09-10T08:10:19.820Z,145
2018-09-10T08:11:29.915Z,145
2018-09-10T08:12:39.737Z,145
2018-09-10T08:13:49.831Z,145
2018-09-10T08:14:59.933Z,145
2018-09-10T08:16:09.820Z,145
2018-09-10T08:17:19.356Z,150
2018-09-10T08:18:29.442Z,150
2018-09-10T08:19:39.543Z,150
2018-09-10T08:20:49.361Z,150
2018-09-10T08:21:59.441Z,150
2018-09-10T08:23:09.513Z,150
2018-09-10T08:24:34.316Z,150
2018-09-10T08:25:44.434Z,150
2018-09-10T08:26:54.320Z,150
2018-09-10T08:28:03.896Z,150
2018-09-10T08:30:39.015Z,155
2018-09-10T08:31:49.103Z,155
2018-09-10T08:32:59.166Z,155
2018-09-10T08:34:09.248Z,155
2018-09-10T08:35:19.366Z,155
2018-09-10T08:36:29.469Z,155
2018-09-10T08:37:39.554Z,155
2018-09-10T08:38:49.637Z,155
2018-09-10T08:39:59.707Z,155
2018-09-10T08:41:10.517Z,155
2018-09-10T08:42:20.383Z,160
2018-09-10T08:43:30.200Z,160
2018-09-10T08:44:40.297Z,160
2018-09-10T08:45:50.403Z,160
2018-09-10T08:47:00.476Z,160
2018-09-10T08:48:10.420Z,160
2018-09-10T08:49:20.498Z,160
2018-09-10T08:50:30.626Z,160
2018-09-10T08:51:40.448Z,160
2018-09-10T08:52:50.277Z,160
2018-09-10T08:54:00.995Z,160
2018-09-10T08:55:12.214Z,160
2018-09-10T08:56:23.914Z,160
2018-09-10T08:57:33.853Z,160
2018-09-10T08:58:43.935Z,165
2018-09-10T08:59:54.019Z,165
2018-09-10T09:01:03.576Z,165
2018-09-10T09:02:13.548Z,165
2018-09-10T09:03:23.647Z,165
2018-09-10T09:04:33.469Z,165
2018-09-10T09:05:43.335Z,165
2018-09-10T09:06:53.148Z,165
2018-09-10T09:08:03.581Z,165
2018-09-10T09:09:13.719Z,165
2018-09-10T09:10:23.798Z,165
2018-09-10T09:11:33.983Z,170
2018-09-10T09:12:44.089Z,170
2018-09-10T09:13:53.914Z,170
2018-09-10T09:15:03.989Z,170
2018-09-10T09:16:14.053Z,170
2018-09-10T09:17:24.335Z,170
2018-09-10T09:18:34.692Z,170
2018-09-10T09:19:44.790Z,170
2018-09-10T09:20:54.891Z,170
2018-09-10T09:22:05.177Z,170
2018-09-10T09:23:15.936Z,170
2018-09-10T09:24:25.776Z,170
2018-09-10T09:25:35.884Z,170
2018-09-10T09:26:45.966Z,170
2018-09-10T09:27:55.791Z,175
2018-09-10T09:29:05.680Z,175
2018-09-10T09:30:15.879Z,170
2018-09-10T09:31:25.725Z,170
2018-09-10T09:32:35.544Z,170
2018-09-10T09:33:45.637Z,170
2018-09-10T09:34:55.792Z,170
2018-09-10T09:36:05.942Z,175
2018-09-10T09:37:16.015Z,170
2018-09-10T09:38:25.847Z,170
2018-09-10T09:39:35.935Z,170
2018-09-10T09:40:46.314Z,170
2018-09-10T09:41:56.138Z,170
2018-09-10T09:43:06.379Z,170
2018-09-10T09:44:16.461Z,170
2018-09-10T09:45:26.298Z,170
2018-09-10T09:46:36.430Z,170
2018-09-10T09:47:46.495Z,170
2018-09-10T09:48:56.573Z,170
2018-09-10T09:50:06.644Z,170
2018-09-10T09:51:17.193Z,175
2018-09-10T09:52:27.412Z,175
2018-09-10T09:53:37.237Z,175
2018-09-10T09:54:47.316Z,175
2018-09-10T09:55:57.145Z,175
2018-09-10T09:57:07.013Z,175
2018-09-10T09:58:16.878Z,175
2018-09-10T09:59:26.693Z,175
2018-09-10T10:00:36.786Z,175
2018-09-10T10:01:46.878Z,175
2018-09-10T10:02:56.693Z,175
2018-09-10T10:04:07.374Z,175
2018-09-10T10:05:17.289Z,180
2018-09-10T10:06:27.423Z,180
2018-09-10T10:07:37.506Z,180
2018-09-10T10:08:47.325Z,180
2018-09-10T10:09:57.467Z,180
2018-09-10T10:11:07.683Z,180
2018-09-10T10:12:18.129Z,180
2018-09-10T10:13:28.374Z,180
2018-09-10T10:14:38.468Z,180
2018-09-10T10:15:48.332Z,180
2018-09-10T10:16:58.408Z,180
2018-09-10T10:18:08.233Z,180
2018-09-10T10:19:18.320Z,180
2018-09-10T10:20:28.409Z,180
2018-09-10T10:21:38.313Z,180
2018-09-10T10:22:48.410Z,180
2018-09-10T10:23:58.505Z,180
2018-09-10T10:25:08.597Z,180
2018-09-10T10:26:18.689Z,180
2018-09-10T10:27:28.893Z,180
2018-09-10T10:28:38.975Z,180
2018-09-10T10:29:49.059Z,180
2018-09-10T10:30:59.138Z,180
2018-09-10T10:32:09.216Z,180
2018-09-10T10:33:19.374Z,180
2018-09-10T10:34:29.468Z,180
2018-09-10T10:35:39.550Z,180
2018-09-10T10:36:49.403Z,180
2018-09-10T10:37:58.972Z,180
2018-09-10T10:39:08.986Z,180
2018-09-10T10:40:19.075Z,180
2018-09-10T10:41:29.190Z,180
2018-09-10T10:42:39.275Z,180
2018-09-10T10:43:49.365Z,180
2018-09-10T10:44:59.441Z,185
2018-09-10T10:46:09.539Z,185
2018-09-10T10:47:19.400Z,185
2018-09-10T10:48:29.520Z,185
2018-09-10T10:49:39.333Z,185
2018-09-10T10:50:49.426Z,185
2018-09-10T10:51:59.509Z,185
2018-09-10T10:53:09.606Z,185
2018-09-10T10:54:19.701Z,185
2018-09-10T10:55:29.266Z,185
2018-09-10T10:56:39.129Z,185
2018-09-10T10:57:48.961Z,185
2018-09-10T10:58:58.761Z,185
2018-09-10T11:00:08.839Z,185
2018-09-10T11:01:18.411Z,185
2018-09-10T11:02:28.491Z,185
2018-09-10T11:03:38.565Z,185
2018-09-10T11:04:48.655Z,185
2018-09-10T11:05:58.489Z,185
2018-09-10T11:07:08.553Z,190
2018-09-10T11:08:18.367Z,190
2018-09-10T11:09:28.457Z,190
2018-09-10T11:10:38.558Z,190
2018-09-10T11:11:48.362Z,195
2018-09-10T11:12:58.452Z,190
2018-09-10T11:14:08.555Z,190
2018-09-10T11:15:18.368Z,190
2018-09-10T11:16:28.462Z,195
2018-09-10T11:17:38.342Z,195
2018-09-10T11:18:48.416Z,195
2018-09-10T11:19:58.525Z,195
2018-09-10T11:21:08.098Z,195
2018-09-10T11:22:18.288Z,195
2018-09-10T11:23:28.311Z,195
2018-09-10T11:24:38.396Z,195
2018-09-10T11:25:48.551Z,195
2018-09-10T11:26:58.644Z,200
2018-09-10T11:28:08.759Z,195
2018-09-10T11:29:18.879Z,195
2018-09-10T11:30:28.979Z,195
2018-09-10T11:31:39.311Z,195
2018-09-10T11:32:48.867Z,195
2018-09-10T11:33:58.946Z,195
2018-09-10T11:35:08.793Z,195
2018-09-10T11:36:18.876Z,195
2018-09-10T11:37:29.050Z,195
2018-09-10T11:38:39.160Z,195
2018-09-10T11:39:48.974Z,195
2018-09-10T11:40:59.066Z,195
2018-09-10T11:42:09.162Z,195
2018-09-10T11:43:19.262Z,195
2018-09-10T11:44:29.351Z,195
2018-09-10T11:45:39.439Z,195
2018-09-10T11:46:49.796Z,195
2018-09-10T11:47:59.889Z,195
2018-09-10T11:49:10.085Z,195
2018-09-10T11:50:20.203Z,195
2018-09-10T11:51:30.314Z,195
2018-09-10T11:52:40.418Z,195
2018-09-10T11:53:50.528Z,195
2018-09-10T11:55:00.630Z,195
2018-09-10T11:56:10.720Z,195
2018-09-10T11:57:20.351Z,195
2018-09-10T11:58:30.447Z,195
2018-09-10T11:59:40.518Z,195
2018-09-10T12:00:50.597Z,195
2018-09-10T12:02:00.914Z,195
2018-09-10T12:03:11.074Z,195
2018-09-10T12:04:20.891Z,195
2018-09-10T12:05:30.730Z,195
2018-09-10T12:06:40.833Z,195
2018-09-10T12:07:50.686Z,195
2018-09-10T12:09:00.854Z,195
2018-09-10T12:10:10.957Z,195
2018-09-10T12:11:21.046Z,195
2018-09-10T12:12:31.123Z,195
2018-09-10T12:13:41.667Z,195
2018-09-10T12:14:51.822Z,195
2018-09-10T12:16:01.911Z,195
2018-09-10T12:17:12.005Z,195
2018-09-10T12:18:21.832Z,195
2018-09-10T12:19:31.953Z,195
2018-09-10T12:20:42.147Z,200
2018-09-10T12:21:52.228Z,200
2018-09-10T12:23:02.069Z,200
2018-09-10T12:24:12.151Z,200
2018-09-10T12:25:22.236Z,200
2018-09-10T12:26:32.281Z,200
2018-09-10T12:27:42.399Z,200
2018-09-10T12:28:52.504Z,200
2018-09-10T12:30:02.338Z,195
2018-09-10T12:31:12.166Z,195
2018-09-10T12:32:22.501Z,195
2018-09-10T12:33:32.314Z,195
2018-09-10T12:34:41.873Z,195
2018-09-10T12:35:51.690Z,195
2018-09-10T12:37:01.778Z,195
2018-09-10T12:38:11.899Z,190
2018-09-10T12:39:22.254Z,190
2018-09-10T12:40:32.410Z,190
2018-09-10T12:41:42.252Z,190
2018-09-10T12:42:52.339Z,190
2018-09-10T12:44:02.532Z,190
2018-09-10T12:45:12.626Z,190
2018-09-10T12:46:22.307Z,190
2018-09-10T12:47:32.393Z,190
2018-09-10T12:48:42.496Z,190
2018-09-10T12:49:52.626Z,190
2018-09-10T12:51:02.708Z,185
2018-09-10T12:52:12.795Z,190
2018-09-10T12:53:22.914Z,185
2018-09-10T12:54:32.983Z,185
2018-09-10T12:55:43.124Z,185
2018-09-10T12:56:53.231Z,185
2018-09-10T12:58:03.327Z,185
2018-09-10T12:59:13.194Z,185
2018-09-10T13:00:23.282Z,185
2018-09-10T13:01:33.230Z,185
2018-09-10T13:02:43.317Z,185
2018-09-10T13:03:53.152Z,185
2018-09-10T13:05:03.224Z,185
2018-09-10T13:06:13.065Z,185
2018-09-10T13:07:23.151Z,180
2018-09-10T13:08:33.240Z,185
2018-09-10T13:09:43.329Z,180
2018-09-10T13:10:53.567Z,185
2018-09-10T13:12:03.656Z,185
2018-09-10T13:13:13.751Z,185
2018-09-10T13:14:23.854Z,180
2018-09-10T13:15:33.981Z,180
2018-09-10T13:16:44.095Z,180
2018-09-10T13:17:54.183Z,180
2018-09-10T13:19:04.018Z,180
2018-09-10T13:20:14.159Z,180
2018-09-10T13:21:24.304Z,170
2018-09-10T13:22:34.403Z,175
2018-09-10T13:23:44.476Z,180
2018-09-10T13:24:54.291Z,180
2018-09-10T13:26:04.385Z,180
2018-09-10T13:27:14.207Z,180
2018-09-10T13:28:24.322Z,180
2018-09-10T13:29:34.450Z,180
2018-09-10T13:30:44.570Z,180
2018-09-10T13:31:54.354Z,180
2018-09-10T13:33:04.456Z,180
2018-09-10T13:34:14.538Z,180
2018-09-10T13:35:24.621Z,180
2018-09-10T13:36:34.701Z,180
2018-09-10T13:37:44.780Z,180
2018-09-10T13:38:54.919Z,180
2018-09-10T13:40:05.008Z,180
2018-09-10T13:41:15.084Z,180
2018-09-10T13:42:25.167Z,180
2018-09-10T13:43:35.312Z,180
2018-09-10T13:44:45.454Z,180
2018-09-10T13:45:55.529Z,180
2018-09-10T13:47:05.633Z,180
2018-09-10T13:48:15.461Z,180
2018-09-10T13:49:25.296Z,175
2018-09-10T13:50:35.108Z,170
2018-09-10T13:51:44.925Z,160
2018-09-10T13:52:55.036Z,150
2018-09-10T13:54:05.426Z,165
2018-09-10T13:55:15.201Z,165
2018-09-10T13:56:25.339Z,175
2018-09-10T13:57:35.426Z,160
2018-09-10T13:58:45.518Z,175
2018-09-10T13:59:55.864Z,170
2018-09-10T14:01:05.969Z,160
2018-09-10T14:02:16.097Z,170
2018-09-10T14:03:26.242Z,170
2018-09-10T14:04:36.325Z,155
2018-09-10T14:05:46.447Z,155
2018-09-10T14:06:56.529Z,170
2018-09-10T14:08:06.705Z,170
2018-09-10T14:09:16.820Z,160
2018-09-10T14:10:26.985Z,150
2018-09-10T14:11:37.105Z,150
2018-09-10T14:12:46.958Z,140
2018-09-10T14:13:57.126Z,140
2018-09-10T14:15:07.226Z,140
2018-09-10T14:16:17.332Z,145
2018-09-10T14:17:28.224Z,145
2018-09-10T14:18:38.909Z,150
2018-09-10T14:19:48.812Z,145
2018-09-10T14:20:58.659Z,145
2018-09-10T14:22:08.775Z,150
2018-09-10T14:23:18.622Z,155
2018-09-10T14:24:28.739Z,150
2018-09-10T14:25:38.440Z,145
2018-09-10T14:26:48.554Z,145
2018-09-10T14:27:58.660Z,145
2018-09-10T14:29:08.510Z,150
2018-09-10T14:30:18.353Z,150
2018-09-10T14:31:28.466Z,140
2018-09-10T14:32:38.574Z,140
2018-09-10T14:33:48.687Z,140
2018-09-10T14:34:58.700Z,140
2018-09-10T14:36:09.517Z,140
2018-09-10T14:37:19.863Z,145
2018-09-10T14:38:29.977Z,140
2018-09-10T14:39:40.129Z,145
2018-09-10T14:40:49.978Z,155
2018-09-10T14:42:00.095Z,155
2018-09-10T14:43:10.382Z,155
2018-09-10T14:44:20.304Z,150
2018-09-10T14:45:30.415Z,145
2018-09-10T14:46:40.514Z,140
2018-09-10T14:47:50.639Z,135
2018-09-10T14:49:00.814Z,140
2018-09-10T14:50:10.920Z,135
2018-09-10T14:51:20.511Z,130
2018-09-10T14:52:30.613Z,135
2018-09-10T14:53:40.818Z,135
2018-09-10T14:54:51.312Z,135
2018-09-10T14:56:01.138Z,135
2018-09-10T14:57:10.979Z,140
2018-09-10T14:58:20.857Z,140
2018-09-10T14:59:30.670Z,140
2018-09-10T15:00:40.832Z,140
2018-09-10T15:01:50.909Z,145
2018-09-10T15:03:00.732Z,140
2018-09-10T15:04:10.912Z,145
2018-09-10T15:05:21.006Z,145
2018-09-10T15:06:31.157Z,135
2018-09-10T15:07:41.262Z,135
2018-09-10T15:08:51.386Z,135
2018-09-10T15:10:01.218Z,135
2018-09-10T15:11:11.382Z,130
2018-09-10T15:12:21.861Z,125
2018-09-10T15:13:32.064Z,130
2018-09-10T15:14:42.886Z,120
2018-09-10T15:15:52.971Z,120
2018-09-10T15:17:03.061Z,125
2018-09-10T15:18:13.001Z,120
2018-09-10T15:19:23.091Z,115
2018-09-10T15:20:33.177Z,110
2018-09-10T15:21:43.264Z,120
2018-09-10T15:22:53.367Z,115
2018-09-10T15:24:03.294Z,105
2018-09-10T15:25:13.202Z,100
2018-09-10T15:26:23.447Z,90
2018-09-10T15:27:33.529Z,90
2018-09-10T15:28:43.636Z,90
2018-09-10T15:29:53.733Z,85
2018-09-10T15:31:03.821Z,85
2018-09-10T15:32:13.910Z,85
2018-09-10T15:33:24.028Z,85
2018-09-10T15:34:34.363Z,85
2018-09-10T15:35:43.917Z,85
2018-09-10T15:36:54.017Z,85
2018-09-10T15:38:04.136Z,85
2018-09-10T15:39:14.263Z,85
2018-09-10T15:40:24.350Z,90
2018-09-10T15:41:34.441Z,90
2018-09-10T15:42:44.552Z,90
2018-09-10T15:43:54.640Z,90
2018-09-10T15:45:04.762Z,90
2018-09-10T15:46:14.913Z,90
2018-09-10T15:47:25.002Z,90
2018-09-10T15:48:34.861Z,95
2018-09-10T15:49:44.974Z,95
2018-09-10T15:50:54.528Z,95
2018-09-10T15:52:04.622Z,85
2018-09-10T15:53:14.770Z,95
2018-09-10T15:54:24.990Z,85
2018-09-10T15:55:35.073Z,90
2018-09-10T15:56:45.212Z,85
2018-09-10T15:57:55.365Z,90
2018-09-10T15:59:05.472Z,85
2018-09-10T16:00:16.218Z,80
2018-09-10T16:01:26.332Z,75
2018-09-10T16:02:36.449Z,80
2018-09-10T16:03:46.564Z,70
2018-09-10T16:04:56.648Z,75
2018-09-10T16:06:06.497Z,85
2018-09-10T16:07:16.803Z,85
2018-09-10T16:08:26.970Z,70
2018-09-10T16:09:37.088Z,70
2018-09-10T16:10:47.198Z,80
2018-09-10T16:11:57.316Z,80
2018-09-10T16:13:07.612Z,65
2018-09-10T16:14:17.752Z,60
2018-09-10T16:15:27.860Z,60
2018-09-10T16:16:37.992Z,60
2018-09-10T16:17:47.814Z,55
2018-09-10T16:18:57.899Z,55
2018-09-10T16:20:07.788Z,55
2018-09-10T16:21:17.877Z,55
2018-09-10T16:22:27.971Z,55
2018-09-10T16:23:38.060Z,55
2018-09-10T16:24:48.167Z,50
2018-09-10T16:25:58.347Z,50
2018-09-10T16:27:08.437Z,50
2018-09-10T16:28:18.269Z,50
2018-09-10T16:29:28.103Z,50
2018-09-10T16:30:38.204Z,50
2018-09-10T16:31:48.336Z,50
2018-09-10T16:32:58.414Z,45
2018-09-10T16:34:09.008Z,45
2018-09-10T16:35:19.138Z,45
2018-09-10T16:36:28.997Z,40
2018-09-10T16:37:38.876Z,40
2018-09-10T16:38:48.989Z,40
2018-09-10T16:39:58.826Z,35
2018-09-10T16:41:09.369Z,35
2018-09-10T16:42:19.533Z,35
2018-09-10T16:43:29.746Z,35
2018-09-10T16:44:39.832Z,30
2018-09-10T16:45:49.949Z,30
2018-09-10T16:47:00.046Z,30
2018-09-10T16:48:10.186Z,30
2018-09-10T16:49:20.289Z,25
2018-09-10T16:50:30.387Z,25
2018-09-10T16:51:40.218Z,25
2018-09-10T16:52:50.330Z,25
2018-09-10T16:54:00.250Z,20
2018-09-10T16:55:10.689Z,20
2018-09-10T16:56:20.784Z,20
2018-09-10T16:57:30.868Z,15
2018-09-10T16:58:40.960Z,15
2018-09-10T16:59:50.541Z,15